createdAt,value
2018-02-12T00:00:16.596Z,1.33
2018-02-12T00:03:18.505Z,1.10
2018-02-12T00:06:20.407Z,1.50
2018-02-12T00:09:22.400Z,1.33
2018-02-12T00:12:24.291Z,1.40
2018-02-12T00:15:26.193Z,1.33
2018-02-12T00:18:28.185Z,1.20
2018-02-12T00:21:30.091Z,1.47
2018-02-12T00:24:31.987Z,1.77
2018-02-12T00:27:34.044Z,1.00
2018-02-12T00:30:35.976Z,1.20
2018-02-12T00:33:37.907Z,0.80
2018-02-12T00:36:39.893Z,0.70
2018-02-12T00:39:41.887Z,1.10
2018-02-12T00:42:43.783Z,1.00
2018-02-12T00:45:45.674Z,1.43
2018-02-12T00:48:47.573Z,1.37
2018-02-12T00:51:49.467Z,1.20
2018-02-12T00:54:51.463Z,1.17
2018-02-12T00:57:53.350Z,1.27
2018-02-12T01:00:55.242Z,0.87
2018-02-12T01:03:57.131Z,0.87
2018-02-12T01:06:59.034Z,2.07
2018-02-12T01:10:00.922Z,1.70
2018-02-12T01:13:02.817Z,1.37
2018-02-12T01:16:05.243Z,1.47
2018-02-12T01:19:07.138Z,1.50
2018-02-12T01:22:09.139Z,0.80
2018-02-12T01:25:11.043Z,1.13
2018-02-12T01:28:13.171Z,0.90
2018-02-12T01:31:15.132Z,0.77
2018-02-12T01:34:17.038Z,0.87
2018-02-12T01:37:19.035Z,1.50
2018-02-12T01:40:20.918Z,0.70
2018-02-12T01:43:22.852Z,0.67
2018-02-12T01:46:24.815Z,0.70
2018-02-12T01:49:26.706Z,1.23
2018-02-12T01:52:28.616Z,1.60
2018-02-12T01:55:30.615Z,0.80
2018-02-12T01:58:32.611Z,0.80
2018-02-12T02:01:34.514Z,1.00
2018-02-12T02:04:36.502Z,0.73
2018-02-12T02:07:38.399Z,0.60
2018-02-12T02:10:40.294Z,0.63
2018-02-12T02:13:42.178Z,0.70
2018-02-12T02:16:44.078Z,0.60
2018-02-12T02:19:45.970Z,0.90
2018-02-12T02:22:47.879Z,1.40
2018-02-12T02:25:49.866Z,1.33
2018-02-12T02:28:51.769Z,0.70
2018-02-12T02:31:53.663Z,0.70
2018-02-12T02:34:55.559Z,1.00
2018-02-12T02:37:57.551Z,0.77
2018-02-12T02:40:59.463Z,1.03
2018-02-12T02:44:01.355Z,0.80
2018-02-12T02:47:03.238Z,0.90
2018-02-12T02:50:05.143Z,0.80
2018-02-12T02:53:07.046Z,0.87
2018-02-12T02:56:08.922Z,0.70
2018-02-12T02:59:10.836Z,1.17
2018-02-12T03:02:12.722Z,1.20
2018-02-12T03:05:14.723Z,0.67
2018-02-12T03:08:16.610Z,1.43
2018-02-12T03:11:18.847Z,0.70
2018-02-12T03:14:20.814Z,0.80
2018-02-12T03:17:22.706Z,1.20
2018-02-12T03:20:24.602Z,0.97
2018-02-12T03:23:26.506Z,1.23
2018-02-12T03:26:28.402Z,0.50
2018-02-12T03:29:30.393Z,1.53
2018-02-12T03:32:32.299Z,1.10
2018-02-12T03:35:34.287Z,0.97
2018-02-12T03:38:36.200Z,1.00
2018-02-12T03:41:38.091Z,0.70
2018-02-12T03:44:40.087Z,0.80
2018-02-12T03:47:41.979Z,1.23
2018-02-12T03:50:43.864Z,1.33
2018-02-12T03:53:45.775Z,0.70
2018-02-12T03:56:47.667Z,1.27
2018-02-12T03:59:49.563Z,0.50
2018-02-12T04:02:51.447Z,0.80
2018-02-12T04:05:53.342Z,0.63
2018-02-12T04:08:55.231Z,1.17
2018-02-12T04:11:57.138Z,0.70
2018-02-12T04:14:59.051Z,0.77
2018-02-12T04:18:01.031Z,1.00
2018-02-12T04:21:02.927Z,1.27
2018-02-12T04:24:04.824Z,0.90
2018-02-12T04:27:06.943Z,0.50
2018-02-12T04:30:08.818Z,1.10
2018-02-12T04:33:10.715Z,1.03
2018-02-12T04:36:12.632Z,0.63
2018-02-12T04:39:14.518Z,0.73
2018-02-12T04:42:16.406Z,0.97
2018-02-12T04:45:18.404Z,1.43
2018-02-12T04:48:20.311Z,1.53
2018-02-12T04:51:22.311Z,1.13
2018-02-12T04:54:24.302Z,0.90
2018-02-12T04:57:26.290Z,0.67
2018-02-12T05:00:28.195Z,1.83
2018-02-12T05:03:30.093Z,1.60
2018-02-12T05:06:31.984Z,0.80
2018-02-12T05:09:33.874Z,1.40
2018-02-12T05:12:35.760Z,0.90
2018-02-12T05:15:37.691Z,1.03
2018-02-12T05:18:39.668Z,0.90
2018-02-12T05:21:41.658Z,1.60
2018-02-12T05:24:43.558Z,1.53
2018-02-12T05:27:45.447Z,1.57
2018-02-12T05:30:47.359Z,0.53
2018-02-12T05:33:49.251Z,0.70
2018-02-12T05:36:51.149Z,0.90
2018-02-12T05:39:53.040Z,0.60
2018-02-12T05:42:54.940Z,1.10
2018-02-12T05:45:56.835Z,0.73
2018-02-12T05:48:58.731Z,0.97
2018-02-12T05:52:00.637Z,1.03
2018-02-12T05:55:02.516Z,1.20
2018-02-12T05:58:04.393Z,1.00
2018-02-12T06:01:07.351Z,0.97
2018-02-12T06:04:09.248Z,1.33
2018-02-12T06:07:11.155Z,0.97
2018-02-12T06:10:13.044Z,0.60
2018-02-12T06:13:14.922Z,0.70
2018-02-12T06:16:16.798Z,1.17
2018-02-12T06:19:18.663Z,1.17
2018-02-12T06:22:20.542Z,0.70
2018-02-12T06:25:22.427Z,0.87
2018-02-12T06:28:24.546Z,0.77
2018-02-12T06:31:26.422Z,0.80
2018-02-12T06:34:28.303Z,1.10
2018-02-12T06:37:30.188Z,0.60
2018-02-12T06:40:32.111Z,0.70
2018-02-12T06:43:33.994Z,0.50
2018-02-12T06:46:35.894Z,0.70
2018-02-12T06:49:37.780Z,1.10
2018-02-12T06:52:39.663Z,0.57
2018-02-12T06:55:41.529Z,1.53
2018-02-12T06:58:43.407Z,1.03
2018-02-12T07:01:45.287Z,1.00
2018-02-12T07:04:47.178Z,0.87
2018-02-12T07:07:49.046Z,0.77
2018-02-12T07:10:50.934Z,0.97
2018-02-12T07:13:52.800Z,0.93
2018-02-12T07:16:54.786Z,0.60
2018-02-12T07:19:56.747Z,1.13
2018-02-12T07:22:58.663Z,0.80
2018-02-12T07:26:00.498Z,1.33
2018-02-12T07:29:02.380Z,0.90
2018-02-12T07:32:04.280Z,0.80
2018-02-12T07:35:07.255Z,1.20
2018-02-12T07:38:09.163Z,0.77
2018-02-12T07:41:11.046Z,1.17
2018-02-12T07:44:12.940Z,0.93
2018-02-12T07:47:14.847Z,0.80
2018-02-12T07:50:16.847Z,0.60
2018-02-12T07:53:18.740Z,0.70
2018-02-12T07:56:20.727Z,0.50
2018-02-12T07:59:22.631Z,0.67
2018-02-12T08:02:24.514Z,0.90
2018-02-12T08:05:26.411Z,1.00
2018-02-12T08:08:28.306Z,0.93
2018-02-12T08:11:30.206Z,1.00
2018-02-12T08:14:32.111Z,0.50
2018-02-12T08:17:34.011Z,1.03
2018-02-12T08:20:36.017Z,0.60
2018-02-12T08:23:38.011Z,0.60
2018-02-12T08:26:39.908Z,0.57
2018-02-12T08:29:41.787Z,1.47
2018-02-12T08:32:43.689Z,0.90
2018-02-12T08:35:45.679Z,0.53
2018-02-12T08:38:47.578Z,0.90
2018-02-12T08:41:49.482Z,0.97
2018-02-12T08:44:51.375Z,1.13
2018-02-12T08:47:53.271Z,0.57
2018-02-12T08:50:55.162Z,1.53
2018-02-12T08:53:57.040Z,0.80
2018-02-12T08:56:58.918Z,0.60
2018-02-12T09:00:00.796Z,4.77
2018-02-12T09:03:02.687Z,1.90
2018-02-12T09:06:04.572Z,0.93
2018-02-12T09:09:06.466Z,2.70
2018-02-12T09:12:08.331Z,1.83
2018-02-12T09:15:10.235Z,1.23
2018-02-12T09:18:12.087Z,3.70
2018-02-12T09:21:13.971Z,5.43
2018-02-12T09:24:15.846Z,7.07
2018-02-12T09:27:17.719Z,2.73
2018-02-12T09:30:19.609Z,9.40
2018-02-12T09:33:21.482Z,4.83
2018-02-12T09:36:23.403Z,3.07
2018-02-12T09:39:25.246Z,3.17
2018-02-12T09:42:27.118Z,4.13
2018-02-12T09:45:28.991Z,4.17
2018-02-12T09:48:30.870Z,6.20
2018-02-12T09:51:32.787Z,6.00
2018-02-12T09:54:34.676Z,7.97
2018-02-12T09:57:36.618Z,6.63
2018-02-12T10:00:38.490Z,4.80
2018-02-12T10:03:40.372Z,4.90
2018-02-12T10:06:42.234Z,4.63
2018-02-12T10:09:44.107Z,3.77
2018-02-12T10:12:46.005Z,2.23
2018-02-12T10:15:47.903Z,2.97
2018-02-12T10:18:49.770Z,3.83
2018-02-12T10:21:51.652Z,2.33
2018-02-12T10:24:53.522Z,1.03
2018-02-12T10:27:55.404Z,4.90
2018-02-12T10:30:57.291Z,1.03
2018-02-12T10:33:59.169Z,2.23
2018-02-12T10:37:01.038Z,2.40
2018-02-12T10:40:02.914Z,1.97
2018-02-12T10:43:05.611Z,1.50
2018-02-12T10:46:07.464Z,6.67
2018-02-12T10:49:09.351Z,4.63
2018-02-12T10:52:11.226Z,5.27
2018-02-12T10:55:13.231Z,4.17
2018-02-12T10:58:15.111Z,3.77
2018-02-12T11:01:16.996Z,6.93
2018-02-12T11:04:18.870Z,5.87
2018-02-12T11:07:20.787Z,4.73
2018-02-12T11:10:22.619Z,7.93
2018-02-12T11:13:24.514Z,6.77
2018-02-12T11:16:26.391Z,7.10
2018-02-12T11:19:28.282Z,5.73
2018-02-12T11:22:30.167Z,1.80
2018-02-12T11:25:32.034Z,4.53
2018-02-12T11:28:33.931Z,5.97
2018-02-12T11:31:35.837Z,5.17
2018-02-12T11:34:37.729Z,4.07
2018-02-12T11:37:39.647Z,2.30
2018-02-12T11:40:41.508Z,2.60
2018-02-12T11:43:43.378Z,4.17
2018-02-12T11:46:45.247Z,3.30
2018-02-12T11:49:47.115Z,4.13
2018-02-12T11:52:49.018Z,2.67
2018-02-12T11:55:50.886Z,3.47
2018-02-12T11:58:52.794Z,2.63
2018-02-12T12:01:54.747Z,3.67
2018-02-12T12:04:56.621Z,3.03
2018-02-12T12:07:58.538Z,2.70
2018-02-12T12:11:00.531Z,2.07
2018-02-12T12:14:02.442Z,4.53
2018-02-12T12:17:04.435Z,1.63
2018-02-12T12:20:06.337Z,4.90
2018-02-12T12:23:08.276Z,4.03
2018-02-12T12:26:10.123Z,6.30
2018-02-12T12:29:12.105Z,5.77
2018-02-12T12:32:14.019Z,4.07
2018-02-12T12:35:15.922Z,2.93
2018-02-12T12:38:17.838Z,2.10
2018-02-12T12:41:19.724Z,4.30
2018-02-12T12:44:21.627Z,4.90
2018-02-12T12:47:23.967Z,3.27
2018-02-12T12:50:25.955Z,3.13
2018-02-12T12:53:27.947Z,3.83
2018-02-12T12:56:29.947Z,1.57
2018-02-12T12:59:31.831Z,1.60
2018-02-12T13:02:33.740Z,1.53
2018-02-12T13:05:35.636Z,3.60
2018-02-12T13:08:37.526Z,1.03
2018-02-12T13:11:39.438Z,1.40
2018-02-12T13:14:41.330Z,4.47
2018-02-12T13:17:43.478Z,1.93
2018-02-12T13:20:45.394Z,2.20
2018-02-12T13:23:47.387Z,3.60
2018-02-12T13:26:49.276Z,6.40
2018-02-12T13:29:51.166Z,3.27
2018-02-12T13:32:53.075Z,4.37
2018-02-12T13:35:54.972Z,1.77
2018-02-12T13:38:57.023Z,2.17
2018-02-12T13:41:58.963Z,2.60
2018-02-12T13:45:01.203Z,2.73
2018-02-12T13:48:03.150Z,1.07
2018-02-12T13:51:05.070Z,4.07
2018-02-12T13:54:06.955Z,3.30
2018-02-12T13:57:08.886Z,9.10
2018-02-12T14:00:10.875Z,7.73
2018-02-12T14:03:12.783Z,12.93
2018-02-12T14:06:14.771Z,7.27
2018-02-12T14:09:16.671Z,7.97
2018-02-12T14:12:18.685Z,3.60
2018-02-12T14:15:20.958Z,6.83
2018-02-12T14:18:22.835Z,9.07
2018-02-12T14:21:24.759Z,2.13
2018-02-12T14:24:26.642Z,4.60
2018-02-12T14:27:28.657Z,9.90
2018-02-12T14:30:30.591Z,7.90
2018-02-12T14:33:32.483Z,5.20
2018-02-12T14:36:34.359Z,4.17
2018-02-12T14:39:36.247Z,5.30
2018-02-12T14:42:38.188Z,3.57
2018-02-12T14:45:40.108Z,5.40
2018-02-12T14:48:41.984Z,4.90
2018-02-12T14:51:43.897Z,5.80
2018-02-12T14:54:45.799Z,9.00
2018-02-12T14:57:47.702Z,4.50
2018-02-12T15:00:49.852Z,5.90
2018-02-12T15:03:51.823Z,4.63
2018-02-12T15:06:53.726Z,5.53
2018-02-12T15:09:55.627Z,4.27
2018-02-12T15:12:57.518Z,4.80
2018-02-12T15:15:59.423Z,2.63
2018-02-12T15:19:01.327Z,2.60
2018-02-12T15:22:03.236Z,7.07
2018-02-12T15:25:05.147Z,3.13
2018-02-12T15:28:07.131Z,4.57
2018-02-12T15:31:09.063Z,3.77
2018-02-12T15:34:11.051Z,2.37
2018-02-12T15:37:13.041Z,3.73
2018-02-12T15:40:14.924Z,2.23
2018-02-12T15:43:16.988Z,1.53
2018-02-12T15:46:18.916Z,2.80
2018-02-12T15:49:20.811Z,3.87
2018-02-12T15:52:22.695Z,4.40
2018-02-12T15:55:24.603Z,2.00
2018-02-12T15:58:26.499Z,2.27
2018-02-12T16:01:28.412Z,2.87
2018-02-12T16:04:30.300Z,1.60
2018-02-12T16:07:32.297Z,3.03
2018-02-12T16:10:34.263Z,1.67
2018-02-12T16:13:36.199Z,2.60
2018-02-12T16:16:38.102Z,2.10
2018-02-12T16:19:40.011Z,2.00
2018-02-12T16:22:41.910Z,1.77
2018-02-12T16:25:43.811Z,2.97
2018-02-12T16:28:45.711Z,5.50
2018-02-12T16:31:47.706Z,6.53
2018-02-12T16:34:49.608Z,5.03
2018-02-12T16:37:51.645Z,5.73
2018-02-12T16:40:53.606Z,4.23
2018-02-12T16:43:55.533Z,4.73
2018-02-12T16:46:57.521Z,3.73
2018-02-12T16:49:59.415Z,7.40
2018-02-12T16:53:01.470Z,3.50
2018-02-12T16:56:03.424Z,9.87
2018-02-12T16:59:05.494Z,9.03
2018-02-12T17:02:07.412Z,5.43
2018-02-12T17:05:10.238Z,5.83
2018-02-12T17:08:12.135Z,10.57
2018-02-12T17:11:14.118Z,3.20
2018-02-12T17:14:16.027Z,4.90
2018-02-12T17:17:17.932Z,4.83
2018-02-12T17:20:19.931Z,4.60
2018-02-12T17:23:21.835Z,5.83
2018-02-12T17:26:23.825Z,6.13
2018-02-12T17:29:25.726Z,5.37
2018-02-12T17:32:27.623Z,2.37
2018-02-12T17:35:29.611Z,4.63
2018-02-12T17:38:32.562Z,5.43
2018-02-12T17:41:34.563Z,5.22
2018-02-12T17:44:36.561Z,3.80
2018-02-12T17:47:38.541Z,1.20
2018-02-12T17:50:40.535Z,2.60
2018-02-12T17:53:42.443Z,1.20
2018-02-12T17:56:44.326Z,4.30
2018-02-12T17:59:46.219Z,1.87
2018-02-12T18:02:48.115Z,3.93
2018-02-12T18:05:50.027Z,1.20
2018-02-12T18:08:52.024Z,2.73
2018-02-12T18:11:54.019Z,3.97
2018-02-12T18:14:55.922Z,4.50
2018-02-12T18:17:57.807Z,1.93
2018-02-12T18:20:59.803Z,1.77
2018-02-12T18:24:01.702Z,5.70
2018-02-12T18:27:03.638Z,1.43
2018-02-12T18:30:05.832Z,1.80
2018-02-12T18:33:07.727Z,4.40
2018-02-12T18:36:09.622Z,2.30
2018-02-12T18:39:11.619Z,3.57
2018-02-12T18:42:13.534Z,1.40
2018-02-12T18:45:15.527Z,3.07
2018-02-12T18:48:17.407Z,2.10
2018-02-12T18:51:19.314Z,2.20
2018-02-12T18:54:21.215Z,1.37
2018-02-12T18:57:23.119Z,1.90
2018-02-12T19:00:24.996Z,2.70
2018-02-12T19:03:27.251Z,1.40
2018-02-12T19:06:29.215Z,2.17
2018-02-12T19:09:31.107Z,6.60
2018-02-12T19:12:33.011Z,2.00
2018-02-12T19:15:34.912Z,1.10
2018-02-12T19:18:36.803Z,2.23
2018-02-12T19:21:38.711Z,3.07
2018-02-12T19:24:40.947Z,1.80
2018-02-12T19:27:42.914Z,0.77
2018-02-12T19:30:44.822Z,1.70
2018-02-12T19:33:46.826Z,9.23
2018-02-12T19:36:48.798Z,5.73
2018-02-12T19:39:50.719Z,2.67
2018-02-12T19:42:52.627Z,11.63
2018-02-12T19:45:54.546Z,3.30
2018-02-12T19:48:56.426Z,2.10
2018-02-12T19:51:58.303Z,8.67
2018-02-12T19:55:00.184Z,3.57
2018-02-12T19:58:02.078Z,3.57
2018-02-12T20:01:03.970Z,2.20
2018-02-12T20:04:05.846Z,2.77
2018-02-12T20:07:07.723Z,4.77
2018-02-12T20:10:09.607Z,6.27
2018-02-12T20:13:11.487Z,1.60
2018-02-12T20:16:14.242Z,1.10
2018-02-12T20:19:16.111Z,1.90
2018-02-12T20:22:18.097Z,4.93
2018-02-12T20:25:20.157Z,1.53
2018-02-12T20:28:22.041Z,1.93
2018-02-12T20:31:23.934Z,2.03
2018-02-12T20:34:25.826Z,2.70
2018-02-12T20:37:27.717Z,3.00
2018-02-12T20:40:29.623Z,3.20
2018-02-12T20:43:31.507Z,4.63
2018-02-12T20:46:33.378Z,3.20
2018-02-12T20:49:35.282Z,1.80
2018-02-12T20:52:37.210Z,4.33
2018-02-12T20:55:39.096Z,3.97
2018-02-12T20:58:41.075Z,4.30
2018-02-12T21:01:42.955Z,2.47
2018-02-12T21:04:44.878Z,4.90
2018-02-12T21:07:46.791Z,5.27
2018-02-12T21:10:48.690Z,4.17
2018-02-12T21:13:50.684Z,3.72
2018-02-12T21:16:52.629Z,3.63
2018-02-12T21:19:54.488Z,4.27
2018-02-12T21:22:56.471Z,7.00
2018-02-12T21:25:58.450Z,5.60
2018-02-12T21:29:00.359Z,5.30
2018-02-12T21:32:02.354Z,3.50
2018-02-12T21:35:04.261Z,2.20
2018-02-12T21:38:06.148Z,5.60
2018-02-12T21:41:08.131Z,6.43
2018-02-12T21:44:10.043Z,4.20
2018-02-12T21:47:11.950Z,3.93
2018-02-12T21:50:13.897Z,3.60
2018-02-12T21:53:15.864Z,3.40
2018-02-12T21:56:17.759Z,4.10
2018-02-12T21:59:28.885Z,3.97
2018-02-12T22:02:30.779Z,3.03
2018-02-12T22:05:32.672Z,3.57
2018-02-12T22:08:34.689Z,4.37
2018-02-12T22:11:36.571Z,4.13
2018-02-12T22:14:38.455Z,3.90
2018-02-12T22:17:40.403Z,3.63
2018-02-12T22:20:42.292Z,2.90
2018-02-12T22:23:44.175Z,3.40
2018-02-12T22:26:46.051Z,2.37
2018-02-12T22:29:47.918Z,5.50
2018-02-12T22:32:49.872Z,3.23
2018-02-12T22:35:51.770Z,2.43
2018-02-12T22:38:53.660Z,2.87
2018-02-12T22:41:55.535Z,2.80
2018-02-12T22:44:57.462Z,3.10
2018-02-12T22:47:59.278Z,3.17
2018-02-12T22:51:01.159Z,2.87
2018-02-12T22:54:03.033Z,2.80
2018-02-12T22:57:04.910Z,2.80
2018-02-12T23:00:06.809Z,3.57
2018-02-12T23:03:08.687Z,4.40
2018-02-12T23:06:10.618Z,3.13
2018-02-12T23:09:12.449Z,2.80
2018-02-12T23:12:14.324Z,3.43
2018-02-12T23:15:20.376Z,2.90
2018-02-12T23:18:22.259Z,5.83
2018-02-12T23:21:24.131Z,3.63
2018-02-12T23:24:26.010Z,4.60
2018-02-12T23:27:27.895Z,3.83
2018-02-12T23:30:29.767Z,2.43
2018-02-12T23:36:55.654Z,2.50
2018-02-12T23:39:57.543Z,2.73
2018-02-12T23:42:59.427Z,2.50
2018-02-12T23:46:01.320Z,2.23
2018-02-12T23:49:03.198Z,2.77
2018-02-12T23:52:05.071Z,3.00
2018-02-12T23:55:06.945Z,3.07
2018-02-12T23:58:08.830Z,3.87
